Time;durP1;ratioP1;P1;durP2;ratioP2;P2;SDS_P1;SDS_P2;PMS_P1;PMS_P2;Temp;Humidity;BMP_temperature;BMP_pressure;BME280_temperature;BME280_humidity;BME280_pressure;Samples;Min_cycle;Max_cycle;Signal;HPM_P1;HPM_P2
2023/03/23 00:02:26;;;;;;;1999.90;999.90;;;13.90;99.90;;;;;;5091157;28;20418;-68
2023/03/23 00:04:54;;;;;;;1999.90;999.90;;;14.00;99.90;;;;;;5091099;28;20409;-68
2023/03/23 00:07:21;;;;;;;1999.90;999.90;;;14.00;99.90;;;;;;5092091;28;20498;-68
2023/03/23 00:09:52;;;;;;;1999.90;999.90;;;14.00;99.90;;;;;;5099472;28;20517;-68
2023/03/23 00:12:20;;;;;;;1999.90;999.90;;;14.10;99.90;;;;;;5091045;28;20929;-68
2023/03/23 00:14:47;;;;;;;1999.90;999.90;;;14.00;99.90;;;;;;5090992;28;20459;-68
2023/03/23 00:17:14;;;;;;;1999.90;999.90;;;14.10;99.90;;;;;;5091164;28;20433;-68
2023/03/23 00:19:45;;;;;;;1999.90;999.90;;;14.00;99.90;;;;;;5099478;28;20448;-69
2023/03/23 00:22:14;;;;;;;1999.90;999.90;;;14.00;99.90;;;;;;5091046;28;20421;-69
2023/03/23 00:24:41;;;;;;;1999.90;999.90;;;14.00;99.90;;;;;;5090867;28;20479;-68
2023/03/23 00:27:08;;;;;;;1999.90;999.90;;;14.10;99.90;;;;;;5094635;28;20473;-69
2023/03/23 00:29:35;;;;;;;1999.90;999.90;;;14.10;99.90;;;;;;5099718;28;21054;-68
2023/03/23 00:32:02;;;;;;;1999.90;999.90;;;14.10;99.90;;;;;;5090962;28;20410;-66
2023/03/23 00:34:34;;;;;;;1999.90;999.90;;;14.10;99.90;;;;;;5090788;28;20418;-69
2023/03/23 00:37:01;;;;;;;1999.90;999.90;;;14.10;99.90;;;;;;5093412;28;20813;-69
2023/03/23 00:39:29;;;;;;;1999.90;999.90;;;14.00;99.90;;;;;;5102348;28;20414;-68
2023/03/23 00:42:00;;;;;;;1999.90;999.90;;;14.00;99.90;;;;;;5110925;28;20412;-66
2023/03/23 00:44:28;;;;;;;1999.90;999.90;;;14.00;99.90;;;;;;5111088;28;20414;-69
2023/03/23 00:46:56;;;;;;;1999.90;999.90;;;14.00;99.90;;;;;;5110309;28;20412;-68
2023/03/23 00:49:25;;;;;;;1999.90;999.90;;;14.10;99.90;;;;;;5101482;28;20435;-67
2023/03/23 00:51:52;;;;;;;1999.90;999.90;;;14.10;99.90;;;;;;5090582;28;20528;-67
2023/03/23 00:54:19;;;;;;;1999.90;999.90;;;14.00;99.90;;;;;;5090635;28;20410;-67
2023/03/23 00:56:47;;;;;;;1999.90;999.90;;;14.00;99.90;;;;;;5090432;28;21092;-66
2023/03/23 00:59:14;;;;;;;1999.90;999.90;;;14.10;99.90;;;;;;5102836;28;20409;-67
2023/03/23 01:01:41;;;;;;;1999.90;999.90;;;14.00;99.90;;;;;;5110034;28;20408;-66
2023/03/23 01:04:12;;;;;;;1999.90;999.90;;;14.00;99.90;;;;;;5110740;28;20452;-67
2023/03/23 01:06:43;;;;;;;1999.90;999.90;;;14.10;99.90;;;;;;5109932;28;22319;-68
2023/03/23 01:09:14;;;;;;;1999.90;999.90;;;14.00;99.90;;;;;;5097350;28;20494;-67
2023/03/23 01:11:41;;;;;;;1999.90;999.90;;;14.10;99.90;;;;;;5090815;28;20469;-67
2023/03/23 01:14:10;;;;;;;1999.90;999.90;;;14.00;99.90;;;;;;5090351;28;20456;-67
2023/03/23 01:16:36;;;;;;;1999.90;999.90;;;13.90;99.90;;;;;;5090176;28;20406;-67
2023/03/23 01:19:03;;;;;;;1999.90;999.90;;;14.00;99.90;;;;;;5100350;28;20477;-67
2023/03/23 01:21:30;;;;;;;1999.90;999.90;;;14.00;99.90;;;;;;5092037;28;20465;-67
2023/03/23 01:23:57;;;;;;;1999.90;999.90;;;14.00;99.90;;;;;;5090044;28;20414;-65
2023/03/23 01:26:26;;;;;;;1999.90;999.90;;;14.00;99.90;;;;;;5089957;28;20884;-66
2023/03/23 01:28:53;;;;;;;1999.90;999.90;;;13.90;99.90;;;;;;5097774;28;20433;-65
2023/03/23 01:31:23;;;;;;;1999.90;999.90;;;13.90;99.90;;;;;;5101699;28;20886;-67
2023/03/23 01:33:51;;;;;;;1999.90;999.90;;;13.90;99.90;;;;;;5090110;28;20405;-67
2023/03/23 01:36:20;;;;;;;1999.90;999.90;;;13.80;99.90;;;;;;5089924;28;20413;-67
2023/03/23 01:38:48;;;;;;;1999.90;999.90;;;13.80;99.90;;;;;;5097154;28;20435;-67
2023/03/23 01:41:17;;;;;;;1999.90;999.90;;;13.80;99.90;;;;;;5094271;28;20410;-67
2023/03/23 01:44:04;;;;;;;1999.90;999.90;;;13.70;99.90;;;;;;5090025;28;20519;-66
2023/03/23 01:46:33;;;;;;;1999.90;999.90;;;13.50;99.90;;;;;;5089824;28;20455;-66
2023/03/23 01:49:06;;;;;;;1999.90;999.90;;;13.30;99.90;;;;;;5098892;28;20453;-66
2023/03/23 01:51:36;;;;;;;1999.90;999.90;;;13.10;99.90;;;;;;5091871;28;20478;-66
2023/03/23 01:54:07;;;;;;;1999.90;999.90;;;13.00;99.90;;;;;;5089870;28;20418;-67
2023/03/23 01:56:40;;;;;;;1999.90;999.90;;;13.00;99.90;;;;;;5089751;28;20421;-67
2023/03/23 01:59:08;;;;;;;1999.90;999.90;;;12.70;99.90;;;;;;5099184;28;20432;-67
2023/03/23 02:01:39;;;;;;;1999.90;999.90;;;12.70;99.90;;;;;;5091533;28;20462;-67
2023/03/23 02:04:07;;;;;;;1999.90;999.90;;;12.70;99.90;;;;;;5089909;28;20418;-66
2023/03/23 02:06:33;;;;;;;1999.90;999.90;;;12.70;99.90;;;;;;5089694;28;20433;-67
2023/03/23 02:09:00;;;;;;;1999.90;999.90;;;12.70;99.90;;;;;;5097748;28;20435;-67
2023/03/23 02:11:27;;;;;;;1999.90;999.90;;;12.60;99.90;;;;;;5092298;28;20430;-67
2023/03/23 02:13:54;;;;;;;1999.90;999.90;;;12.50;99.90;;;;;;5095330;28;20431;-67
2023/03/23 02:16:31;;;;;;;1999.90;999.90;;;12.40;99.90;;;;;;5105182;28;20473;-67
2023/03/23 02:19:12;;;;;;;1999.90;999.90;;;12.40;99.90;;;;;;5093420;28;20417;-66
2023/03/23 02:22:02;;;;;;;1999.90;999.90;;;12.50;99.90;;;;;;5093243;28;20409;-65
2023/03/23 02:25:08;;;;;;;1999.90;999.90;;;12.50;99.90;;;;;;5099813;28;20490;-67
2023/03/23 02:28:07;;;;;;;1999.90;999.90;;;12.60;99.90;;;;;;5101259;28;20753;-66
2023/03/23 02:31:13;;;;;;;1999.90;999.90;;;12.70;99.90;;;;;;5092966;28;21033;-66
2023/03/23 02:33:47;;;;;;;1999.90;999.90;;;12.70;99.90;;;;;;5042434;28;20445;-66
2023/03/23 02:36:21;;;;;;;1999.90;999.90;;;12.70;99.90;;;;;;5104739;28;20828;-67
2023/03/23 02:39:00;;;;;;;1999.90;999.90;;;12.80;99.90;;;;;;5092773;28;20898;-67
2023/03/23 02:41:32;;;;;;;1999.90;999.90;;;12.70;99.90;;;;;;5094577;28;20426;-66
2023/03/23 02:44:00;;;;;;;1999.90;999.90;;;12.70;99.90;;;;;;5099746;28;20409;-66
2023/03/23 02:46:28;;;;;;;1999.90;999.90;;;12.60;99.90;;;;;;5092672;28;20432;-67
2023/03/23 02:48:58;;;;;;;1999.90;999.90;;;12.60;99.90;;;;;;5092682;28;20413;-67
2023/03/23 02:51:26;;;;;;;1999.90;999.90;;;12.70;99.90;;;;;;5102078;28;20428;-67
2023/03/23 02:53:55;;;;;;;1999.90;999.90;;;12.70;99.90;;;;;;5101043;28;20490;-67
2023/03/23 02:56:27;;;;;;;1999.90;999.90;;;12.70;99.90;;;;;;5092592;28;20436;-66
2023/03/23 02:58:54;;;;;;;1999.90;999.90;;;12.80;99.90;;;;;;5092528;28;20938;-67
2023/03/23 03:01:58;;;;;;;1999.90;999.90;;;12.70;99.90;;;;;;5101687;28;20420;-67
2023/03/23 03:04:28;;;;;;;1999.90;999.90;;;12.70;99.90;;;;;;5109081;28;21082;-67
2023/03/23 03:07:16;;;;;;;1999.90;999.90;;;12.80;99.90;;;;;;5112584;28;20909;-67
2023/03/23 03:09:49;;;;;;;1999.90;999.90;;;12.90;99.90;;;;;;5162830;22;20432;-66
2023/03/23 03:12:22;;;;;;;1999.90;999.90;;;12.90;99.90;;;;;;5109042;28;20428;-66
2023/03/23 03:14:58;;;;;;;1999.90;999.90;;;13.00;99.90;;;;;;5112179;28;20416;-66
2023/03/23 03:17:27;;;;;;;1999.90;999.90;;;12.90;99.90;;;;;;5112506;28;20412;-66
2023/03/23 03:19:58;;;;;;;1999.90;999.90;;;12.80;99.90;;;;;;5103230;28;20424;-67
2023/03/23 03:22:29;;;;;;;1999.90;999.90;;;12.70;99.90;;;;;;5095640;28;20418;-66
2023/03/23 03:24:58;;;;;;;1999.90;999.90;;;12.80;99.90;;;;;;5091817;28;20418;-66
2023/03/23 03:27:26;;;;;;;1999.90;999.90;;;12.70;99.90;;;;;;5091988;28;20483;-67
2023/03/23 03:29:56;;;;;;;1999.90;999.90;;;12.70;99.90;;;;;;5099154;28;20797;-67
2023/03/23 03:32:30;;;;;;;1999.90;999.90;;;12.70;99.90;;;;;;5095838;28;20432;-66
2023/03/23 03:35:00;;;;;;;1999.90;999.90;;;12.70;99.90;;;;;;5091694;28;20757;-66
2023/03/23 03:37:27;;;;;;;1999.90;999.90;;;12.70;99.90;;;;;;5091562;28;20491;-67
2023/03/23 03:39:54;;;;;;;1999.90;999.90;;;12.60;99.90;;;;;;5099069;28;20469;-67
2023/03/23 03:42:20;;;;;;;1999.90;999.90;;;12.60;99.90;;;;;;5096170;28;20475;-66
2023/03/23 03:44:47;;;;;;;1999.90;999.90;;;12.50;99.90;;;;;;5091682;28;20617;-67
2023/03/23 03:47:14;;;;;;;1999.90;999.90;;;12.50;99.90;;;;;;5091493;28;20406;-66
2023/03/23 03:49:40;;;;;;;1999.90;999.90;;;12.60;99.90;;;;;;5096334;28;20898;-66
2023/03/23 03:52:09;;;;;;;1999.90;999.90;;;12.50;99.90;;;;;;5098044;28;20409;-67
2023/03/23 03:54:36;;;;;;;1999.90;999.90;;;12.40;99.90;;;;;;5091517;28;20420;-66
2023/03/23 03:57:03;;;;;;;1999.90;999.90;;;12.30;99.90;;;;;;5091371;28;20414;-66
2023/03/23 03:59:30;;;;;;;1999.90;999.90;;;12.30;99.90;;;;;;5094595;28;20589;-65
2023/03/23 04:01:57;;;;;;;1999.90;999.90;;;12.30;99.90;;;;;;5099098;28;20416;-66
2023/03/23 04:04:23;;;;;;;1999.90;999.90;;;12.30;99.90;;;;;;5091391;28;20479;-66
2023/03/23 04:06:50;;;;;;;1999.90;999.90;;;12.30;99.90;;;;;;5091064;28;20880;-66
2023/03/23 04:09:19;;;;;;;1999.90;999.90;;;12.30;99.90;;;;;;5100011;28;20432;-66
2023/03/23 04:11:45;;;;;;;1999.90;999.90;;;12.20;99.90;;;;;;5100506;28;20431;-66
2023/03/23 04:14:12;;;;;;;1999.90;999.90;;;12.20;99.90;;;;;;5091138;28;20459;-66
2023/03/23 04:16:40;;;;;;;1999.90;999.90;;;12.10;99.90;;;;;;5090899;28;20409;-66
2023/03/23 04:19:07;;;;;;;1999.90;999.90;;;12.20;99.90;;;;;;5099042;28;20428;-67
2023/03/23 04:21:34;;;;;;;1999.90;999.90;;;12.30;99.90;;;;;;5102943;28;20416;-67
2023/03/23 04:24:02;;;;;;;1999.90;999.90;;;12.30;99.90;;;;;;5111357;28;20435;-66
2023/03/23 04:26:30;;;;;;;1999.90;999.90;;;12.30;99.90;;;;;;5111224;28;20444;-66
2023/03/23 04:28:58;;;;;;;1999.90;999.90;;;12.30;99.90;;;;;;5106671;28;20475;-64
2023/03/23 04:31:25;;;;;;;1999.90;999.90;;;12.30;99.90;;;;;;5099033;28;20422;-66
2023/03/23 04:33:53;;;;;;;1999.90;999.90;;;12.10;99.90;;;;;;5090869;28;20526;-66
2023/03/23 04:36:22;;;;;;;1999.90;999.90;;;12.10;99.90;;;;;;5089861;28;20449;-66
2023/03/23 04:38:49;;;;;;;1999.90;999.90;;;12.10;99.90;;;;;;5092934;28;20428;-66
2023/03/23 04:41:16;;;;;;;1999.90;999.90;;;12.00;99.90;;;;;;5098988;28;20902;-66
2023/03/23 04:43:45;;;;;;;1999.90;999.90;;;12.00;99.90;;;;;;5090457;28;20471;-66
2023/03/23 04:46:11;;;;;;;1999.90;999.90;;;11.90;99.90;;;;;;5090666;28;20414;-66
2023/03/23 04:48:39;;;;;;;1999.90;999.90;;;11.90;99.90;;;;;;5093652;28;20424;-66
2023/03/23 04:51:06;;;;;;;1999.90;999.90;;;12.00;99.90;;;;;;5110675;28;20447;-66
2023/03/23 04:53:34;;;;;;;1999.90;999.90;;;12.00;99.90;;;;;;5110587;28;20480;-66
2023/03/23 04:56:01;;;;;;;1999.90;999.90;;;12.00;99.90;;;;;;5110595;28;20404;-63
2023/03/23 04:58:28;;;;;;;1999.90;999.90;;;12.10;99.90;;;;;;5109607;28;20497;-66
2023/03/23 05:00:57;;;;;;;1999.90;999.90;;;12.10;99.90;;;;;;5098825;28;20483;-66
2023/03/23 05:03:24;;;;;;;1999.90;999.90;;;12.10;99.90;;;;;;5090263;28;20405;-65
2023/03/23 05:05:51;;;;;;;1999.90;999.90;;;12.10;99.90;;;;;;5090290;28;20444;-66
2023/03/23 05:08:19;;;;;;;1999.90;999.90;;;12.10;99.90;;;;;;5089339;28;20413;-66
2023/03/23 05:10:51;;;;;;;1999.90;999.90;;;12.00;99.90;;;;;;5100165;28;20433;-67
2023/03/23 05:13:18;;;;;;;1999.90;999.90;;;12.00;99.90;;;;;;5110396;28;20408;-64
2023/03/23 05:15:45;;;;;;;1999.90;999.90;;;12.00;99.90;;;;;;5110597;28;20565;-67
2023/03/23 05:18:13;;;;;;;1999.90;999.90;;;12.00;99.90;;;;;;5110279;28;20420;-66
2023/03/23 05:20:41;;;;;;;1999.90;999.90;;;12.10;99.90;;;;;;5100178;28;20465;-66
2023/03/23 05:23:08;;;;;;;1999.90;999.90;;;12.00;99.90;;;;;;5089941;28;20406;-66
2023/03/23 05:25:39;;;;;;;1999.90;999.90;;;12.00;99.90;;;;;;5089878;28;20807;-66
2023/03/23 05:28:06;;;;;;;1999.90;999.90;;;11.90;99.90;;;;;;5090021;28;20506;-66
2023/03/23 05:30:33;;;;;;;1999.90;999.90;;;11.90;99.90;;;;;;5099308;28;20433;-66
2023/03/23 05:32:59;;;;;;;1999.90;999.90;;;11.80;99.90;;;;;;5110258;28;20408;-66
2023/03/23 05:35:28;;;;;;;1999.90;999.90;;;11.70;99.90;;;;;;5110216;28;20465;-66
2023/03/23 05:37:55;;;;;;;1999.90;999.90;;;11.80;99.90;;;;;;5109893;28;20782;-66
2023/03/23 05:40:23;;;;;;;1999.90;999.90;;;11.90;99.90;;;;;;5100970;28;20428;-66
2023/03/23 05:42:55;;;;;;;1999.90;999.90;;;11.90;99.90;;;;;;5090781;28;20900;-66
2023/03/23 05:45:22;;;;;;;1999.90;999.90;;;12.00;99.90;;;;;;5089807;28;20410;-62
2023/03/23 05:47:49;;;;;;;1999.90;999.90;;;12.10;99.90;;;;;;5091977;28;20479;-66
2023/03/23 05:50:17;;;;;;;1999.90;999.90;;;12.20;99.90;;;;;;5100260;28;20451;-66
2023/03/23 05:52:45;;;;;;;1999.90;999.90;;;12.20;99.90;;;;;;5096155;28;20479;-65
2023/03/23 05:55:14;;;;;;;1999.90;999.90;;;12.10;99.90;;;;;;5093712;28;20413;-66
2023/03/23 05:57:40;;;;;;;1999.90;999.90;;;12.10;99.90;;;;;;5093476;28;20927;-66
2023/03/23 06:00:19;;;;;;;1999.90;999.90;;;12.20;99.90;;;;;;5098630;28;20916;-64
2023/03/23 06:02:46;;;;;;;1999.90;999.90;;;12.30;99.90;;;;;;5095405;28;20414;-67
2023/03/23 06:05:13;;;;;;;1999.90;999.90;;;12.30;99.90;;;;;;5093497;28;20471;-66
2023/03/23 06:07:40;;;;;;;1999.90;999.90;;;12.20;99.90;;;;;;5093670;28;20414;-66
2023/03/23 06:10:10;;;;;;;1999.90;999.90;;;12.20;99.90;;;;;;5101929;28;20425;-66
2023/03/23 06:12:37;;;;;;;1999.90;999.90;;;12.20;99.90;;;;;;5110273;28;20921;-66
2023/03/23 06:15:06;;;;;;;1999.90;999.90;;;12.20;99.90;;;;;;5113702;28;20408;-66
2023/03/23 06:17:33;;;;;;;1999.90;999.90;;;12.20;99.90;;;;;;5113475;28;20415;-66
2023/03/23 06:20:00;;;;;;;1999.90;999.90;;;12.30;99.90;;;;;;5105474;28;20429;-66
2023/03/23 06:22:27;;;;;;;1999.90;999.90;;;12.10;99.90;;;;;;5101708;28;20406;-65
2023/03/23 06:24:56;;;;;;;1999.90;999.90;;;12.30;99.90;;;;;;5093172;28;20416;-66
2023/03/23 06:27:24;;;;;;;1999.90;999.90;;;12.30;99.90;;;;;;5093018;28;20830;-66
2023/03/23 06:29:51;;;;;;;1999.90;999.90;;;12.20;99.90;;;;;;5094958;28;20487;-66
2023/03/23 06:32:18;;;;;;;1999.90;999.90;;;12.10;99.90;;;;;;5099083;28;20960;-66
2023/03/23 06:34:46;;;;;;;1999.90;999.90;;;12.20;99.90;;;;;;5093115;28;20452;-65
2023/03/23 06:37:13;;;;;;;1999.90;999.90;;;12.30;99.90;;;;;;5092980;28;20413;-66
2023/03/23 06:39:39;;;;;;;1999.90;999.90;;;12.30;99.90;;;;;;5093120;28;20463;-66
2023/03/23 06:42:10;;;;;;;1999.90;999.90;;;12.30;99.90;;;;;;5100765;28;20787;-66
2023/03/23 06:44:38;;;;;;;1999.90;999.90;;;12.20;99.90;;;;;;5092745;28;20467;-66
2023/03/23 06:47:05;;;;;;;1999.90;999.90;;;12.20;99.90;;;;;;5092761;28;20463;-64
2023/03/23 06:49:32;;;;;;;1999.90;999.90;;;12.20;99.90;;;;;;5092570;28;20425;-66
2023/03/23 06:52:01;;;;;;;1999.90;999.90;;;12.30;99.90;;;;;;5100812;28;20422;-66
2023/03/23 06:54:28;;;;;;;1999.90;999.90;;;12.30;99.90;;;;;;5091050;28;20428;-65
2023/03/23 06:56:54;;;;;;;1999.90;999.90;;;12.30;99.90;;;;;;5111091;28;20470;-65
2023/03/23 06:59:21;;;;;;;1999.90;999.90;;;12.40;99.90;;;;;;5100937;28;20432;-66
2023/03/23 07:01:49;;;;;;;1999.90;999.90;;;12.40;99.90;;;;;;5106076;28;20424;-65
2023/03/23 07:04:17;;;;;;;1999.90;999.90;;;12.50;99.90;;;;;;5091178;28;20494;-64
2023/03/23 07:06:43;;;;;;;1999.90;999.90;;;12.40;99.90;;;;;;5100428;28;20486;-65
2023/03/23 07:09:10;;;;;;;1999.90;999.90;;;12.50;99.90;;;;;;5093688;28;20502;-65
2023/03/23 07:11:37;;;;;;;1999.90;999.90;;;12.50;99.90;;;;;;5108233;28;21014;-64
2023/03/23 07:14:04;;;;;;;1999.90;999.90;;;12.50;99.90;;;;;;5098463;28;20414;-65
2023/03/23 07:16:31;;;;;;;1999.90;999.90;;;12.60;99.90;;;;;;5092031;28;20425;-65
2023/03/23 07:18:59;;;;;;;1999.90;999.90;;;12.60;99.90;;;;;;5093870;28;20418;-64
2023/03/23 07:21:26;;;;;;;1999.90;999.90;;;12.70;99.90;;;;;;5098214;28;20829;-64
2023/03/23 07:23:53;;;;;;;1999.90;999.90;;;12.80;99.90;;;;;;5094298;28;20428;-65
2023/03/23 07:26:20;;;;;;;1999.90;999.90;;;12.90;99.90;;;;;;5093101;28;20422;-65
2023/03/23 07:28:46;;;;;;;1999.90;999.90;;;12.90;99.90;;;;;;5094530;28;20422;-65
2023/03/23 07:31:13;;;;;;;1999.90;999.90;;;13.00;99.90;;;;;;5100545;28;20471;-65
2023/03/23 07:33:40;;;;;;;1999.90;999.90;;;13.00;99.90;;;;;;5093548;28;20475;-64
2023/03/23 07:36:09;;;;;;;1999.90;999.90;;;13.00;99.90;;;;;;5092903;28;20922;-63
2023/03/23 07:38:36;;;;;;;1999.90;999.90;;;13.00;99.90;;;;;;5093798;28;20460;-65
2023/03/23 07:41:03;;;;;;;1999.90;999.90;;;13.00;99.90;;;;;;5100431;28;20792;-65
2023/03/23 07:43:30;;;;;;;1999.90;999.90;;;13.10;99.90;;;;;;5092808;28;20413;-64
2023/03/23 07:45:57;;;;;;;1999.90;999.90;;;13.10;99.90;;;;;;5093638;28;20443;-64
2023/03/23 07:48:23;;;;;;;1999.90;999.90;;;13.10;99.90;;;;;;5093432;28;20414;-64
2023/03/23 07:50:50;;;;;;;1999.90;999.90;;;13.20;99.90;;;;;;5098878;28;20955;-64
2023/03/23 07:53:18;;;;;;;1999.90;999.90;;;13.10;99.90;;;;;;5092248;28;20426;-64
2023/03/23 07:55:45;;;;;;;1999.90;999.90;;;13.10;99.90;;;;;;5092241;28;20414;-64
2023/03/23 07:58:18;;;;;;;1999.90;999.90;;;13.00;99.90;;;;;;5093170;28;20410;-64
2023/03/23 08:00:45;;;;;;;1999.90;999.90;;;13.00;99.90;;;;;;5097550;28;20529;-64
2023/03/23 08:03:12;;;;;;;1999.90;999.90;;;13.00;99.90;;;;;;5093307;28;20417;-65
2023/03/23 08:05:38;;;;;;;1999.90;999.90;;;13.10;99.90;;;;;;5091900;28;20414;-65
2023/03/23 08:08:07;;;;;;;1999.90;999.90;;;13.10;99.90;;;;;;5092153;28;20416;-64
2023/03/23 08:10:35;;;;;;;1999.90;999.90;;;13.20;99.90;;;;;;5095234;28;20432;-65
2023/03/23 08:13:02;;;;;;;1999.90;999.90;;;13.20;99.90;;;;;;5092384;28;20426;-65
2023/03/23 08:15:29;;;;;;;1999.90;999.90;;;13.30;99.90;;;;;;5092880;28;20416;-65
2023/03/23 08:17:57;;;;;;;1999.90;999.90;;;13.30;99.90;;;;;;5092180;28;20487;-64
2023/03/23 08:20:25;;;;;;;1999.90;999.90;;;13.30;99.90;;;;;;5091243;28;20437;-64
2023/03/23 08:22:55;;;;;;;1999.90;999.90;;;13.30;99.90;;;;;;5093318;28;20417;-64
2023/03/23 08:25:24;;;;;;;1999.90;999.90;;;13.40;99.90;;;;;;5092639;28;20414;-65
2023/03/23 08:27:52;;;;;;;1999.90;999.90;;;13.50;99.90;;;;;;5091638;28;20425;-66
2023/03/23 08:30:22;;;;;;;1999.90;999.90;;;13.40;99.90;;;;;;5097543;28;20426;-65
2023/03/23 08:32:49;;;;;;;1999.90;999.90;;;13.50;99.90;;;;;;5092211;28;20923;-65
2023/03/23 08:35:16;;;;;;;1999.90;999.90;;;13.50;99.90;;;;;;5091266;28;20425;-65
2023/03/23 08:37:43;;;;;;;1999.90;999.90;;;13.50;99.90;;;;;;5090301;28;20410;-65
2023/03/23 08:40:14;;;;;;;1999.90;999.90;;;13.70;99.90;;;;;;5095242;28;20430;-65
2023/03/23 08:42:43;;;;;;;1999.90;999.90;;;13.80;99.90;;;;;;5091830;28;20471;-65
2023/03/23 08:45:14;;;;;;;1999.90;999.90;;;14.00;99.90;;;;;;5090693;28;20771;-65
2023/03/23 08:47:42;;;;;;;1999.90;999.90;;;14.00;99.90;;;;;;5092160;28;20497;-65
2023/03/23 08:50:13;;;;;;;1999.90;999.90;;;14.00;99.90;;;;;;5096498;28;20432;-64
2023/03/23 08:52:40;;;;;;;1999.90;999.90;;;14.10;99.90;;;;;;5090470;28;20834;-65
2023/03/23 08:55:08;;;;;;;1999.90;999.90;;;14.20;99.90;;;;;;5090654;28;20974;-65
2023/03/23 08:57:35;;;;;;;1999.90;999.90;;;14.30;99.90;;;;;;5090374;28;20424;-65
2023/03/23 09:00:13;;;;;;;1999.90;999.90;;;14.40;99.90;;;;;;5096720;28;20432;-65
2023/03/23 09:02:41;;;;;;;1999.90;999.90;;;14.50;99.90;;;;;;5091831;28;20547;-65
2023/03/23 09:05:09;;;;;;;1999.90;999.90;;;14.50;99.90;;;;;;5092054;28;20425;-65
2023/03/23 09:07:36;;;;;;;1999.90;999.90;;;14.60;99.90;;;;;;5091694;28;20414;-65
2023/03/23 09:12:31;;;;;;;1999.90;999.90;;;14.70;99.90;;;;;;5064944;28;20517;-73
2023/03/23 09:14:58;;;;;;;1999.90;999.90;;;14.60;99.90;;;;;;5065352;28;20435;-72
2023/03/23 09:17:25;;;;;;;1999.90;999.90;;;14.50;99.90;;;;;;5067934;28;20435;-70
2023/03/23 09:19:53;;;;;;;1999.90;999.90;;;14.70;99.90;;;;;;5068309;28;20434;-67
2023/03/23 09:22:23;;;;;;;1999.90;999.90;;;14.90;99.90;;;;;;5051480;28;20949;-70
2023/03/23 09:24:50;;;;;;;1999.90;999.90;;;14.90;99.90;;;;;;5052903;28;20439;-67
2023/03/23 09:27:16;;;;;;;1999.90;999.90;;;15.00;99.90;;;;;;5052658;28;20512;-72
2023/03/23 09:29:44;;;;;;;1999.90;999.90;;;15.10;99.90;;;;;;5053175;28;20472;-71
2023/03/23 09:32:13;;;;;;;1999.90;999.90;;;15.00;99.90;;;;;;5053204;28;20436;-70
2023/03/23 09:34:40;;;;;;;1999.90;999.90;;;15.20;99.90;;;;;;5053436;28;20421;-71
2023/03/23 09:37:09;;;;;;;1999.90;999.90;;;15.20;99.90;;;;;;5051665;28;20432;-71
2023/03/23 09:39:35;;;;;;;1999.90;999.90;;;15.00;99.90;;;;;;5052800;28;20460;-71
2023/03/23 09:42:15;;;;;;;1999.90;999.90;;;14.80;99.90;;;;;;5052901;28;20421;-71
2023/03/23 09:44:58;;;;;;;1999.90;999.90;;;14.90;99.90;;;;;;5053349;28;20475;-70
2023/03/23 09:47:33;;;;;;;1999.90;999.90;;;14.80;99.90;;;;;;5050285;28;20429;-73
2023/03/23 09:50:06;;;;;;;1999.90;999.90;;;14.90;99.90;;;;;;5052830;28;21023;-67
2023/03/23 09:52:42;;;;;;;1999.90;999.90;;;15.00;99.90;;;;;;5053362;28;20614;-71
2023/03/23 09:55:12;;;;;;;1999.90;999.90;;;15.00;99.90;;;;;;5052994;28;20413;-70
2023/03/23 09:57:46;;;;;;;1999.90;999.90;;;15.20;99.90;;;;;;5052316;28;20441;-69
2023/03/23 10:00:18;;;;;;;1999.90;999.90;;;15.20;99.90;;;;;;5052692;28;20421;-71
2023/03/23 10:02:50;;;;;;;1999.90;999.90;;;15.30;99.90;;;;;;5049137;28;21013;-71
2023/03/23 10:05:30;;;;;;;1999.90;999.90;;;15.40;99.90;;;;;;5049195;28;21025;-70
2023/03/23 10:08:00;;;;;;;1999.90;999.90;;;15.30;99.90;;;;;;5051765;28;20516;-71
2023/03/23 10:10:35;;;;;;;1999.90;999.90;;;15.40;99.90;;;;;;5054928;28;20468;-71
2023/03/23 10:13:08;;;;;;;1999.90;999.90;;;15.40;99.90;;;;;;5072804;28;20426;-71
2023/03/23 10:15:39;;;;;;;1999.90;999.90;;;15.30;99.90;;;;;;5072775;28;20416;-70
2023/03/23 10:18:14;;;;;;;1999.90;999.90;;;15.30;99.90;;;;;;5071701;28;20431;-71
2023/03/23 10:20:46;;;;;;;1999.90;999.90;;;15.20;99.90;;;;;;5072482;28;20540;-71
2023/03/23 10:23:38;;;;;;;1999.90;999.90;;;15.20;99.90;;;;;;5071951;28;20412;-71
2023/03/23 10:26:11;;;;;;;1999.90;999.90;;;14.90;99.90;;;;;;5072096;28;20886;-68
2023/03/23 10:28:40;;;;;;;1999.90;999.90;;;14.80;99.90;;;;;;5071751;28;20443;-71
2023/03/23 10:31:12;;;;;;;1999.90;999.90;;;14.80;99.90;;;;;;5072074;28;20415;-71
2023/03/23 10:33:42;;;;;;;1999.90;999.90;;;15.10;99.90;;;;;;5070687;28;20463;-70
2023/03/23 10:36:15;;;;;;;1999.90;999.90;;;15.10;99.90;;;;;;5071921;28;20893;-70
2023/03/23 10:38:46;;;;;;;1999.90;999.90;;;15.30;99.90;;;;;;5071245;28;20504;-71
2023/03/23 10:41:16;;;;;;;1999.90;999.90;;;15.20;99.90;;;;;;5071413;28;20415;-71
2023/03/23 10:43:43;;;;;;;1999.90;999.90;;;15.20;99.90;;;;;;5067865;28;20416;-71
2023/03/23 10:46:22;;;;;;;1999.90;999.90;;;15.20;99.90;;;;;;5071660;28;20415;-70
2023/03/23 10:48:51;;;;;;;1999.90;999.90;;;15.30;99.90;;;;;;5071158;28;20510;-67
2023/03/23 10:51:22;;;;;;;1999.90;999.90;;;15.30;99.90;;;;;;5068492;28;20465;-69
2023/03/23 10:53:57;;;;;;;1999.90;999.90;;;15.30;99.90;;;;;;5071926;28;20420;-72
2023/03/23 10:56:27;;;;;;;1999.90;999.90;;;15.70;99.90;;;;;;5068815;28;20419;-71
2023/03/23 10:58:54;;;;;;;1999.90;999.90;;;15.90;99.90;;;;;;5071196;28;20434;-70
2023/03/23 11:01:30;;;;;;;1999.90;999.90;;;15.90;99.90;;;;;;5071870;28;20411;-70
2023/03/23 11:03:56;;;;;;;1999.90;999.90;;;15.70;99.90;;;;;;5071321;28;20833;-69
2023/03/23 11:06:26;;;;;;;1999.90;999.90;;;15.70;99.90;;;;;;5071846;28;20469;-71
2023/03/23 11:08:57;;;;;;;1999.90;999.90;;;15.60;99.90;;;;;;5070403;28;20482;-72
2023/03/23 11:11:28;;;;;;;1999.90;999.90;;;15.80;99.90;;;;;;5071206;28;20513;-71
2023/03/23 11:13:59;;;;;;;1999.90;999.90;;;15.90;99.90;;;;;;5071171;28;20434;-71
2023/03/23 11:16:27;;;;;;;1999.90;999.90;;;15.90;99.90;;;;;;5071396;28;20416;-71
2023/03/23 11:18:54;;;;;;;1999.90;999.90;;;15.80;99.90;;;;;;5069241;28;20427;-70
2023/03/23 11:21:24;;;;;;;1999.90;999.90;;;15.60;99.90;;;;;;5071630;28;20415;-69
2023/03/23 11:23:53;;;;;;;1999.90;999.90;;;15.80;99.90;;;;;;5071246;28;20441;-71
2023/03/23 11:26:25;;;;;;;1999.90;999.90;;;15.80;99.90;;;;;;5071033;28;20894;-70
2023/03/23 11:28:56;;;;;;;1999.90;999.90;;;15.90;99.90;;;;;;5070244;28;20431;-70
2023/03/23 11:31:24;;;;;;;1999.90;999.90;;;15.90;99.90;;;;;;5068459;28;20412;-71
2023/03/23 11:33:56;;;;;;;1999.90;999.90;;;15.80;99.90;;;;;;5070965;28;20477;-67
2023/03/23 11:36:31;;;;;;;1999.90;999.90;;;15.60;99.90;;;;;;5068132;28;20465;-71
2023/03/23 11:38:58;;;;;;;1999.90;999.90;;;15.60;99.90;;;;;;5067624;28;20937;-71
2023/03/23 11:41:34;;;;;;;1999.90;999.90;;;15.60;99.90;;;;;;5069695;28;20467;-71
2023/03/23 11:44:10;;;;;;;1999.90;999.90;;;15.60;99.90;;;;;;5067637;28;20828;-71
2023/03/23 11:46:43;;;;;;;1999.90;999.90;;;15.70;99.90;;;;;;5070134;28;20481;-70
2023/03/23 11:49:19;;;;;;;1999.90;999.90;;;16.00;99.90;;;;;;5070138;28;20419;-72
2023/03/23 11:51:49;;;;;;;1999.90;999.90;;;16.10;99.90;;;;;;5066847;28;20451;-71
2023/03/23 11:54:21;;;;;;;1999.90;999.90;;;15.80;99.90;;;;;;5070185;28;20470;-70
2023/03/23 11:56:49;;;;;;;1999.90;999.90;;;16.00;99.90;;;;;;5063233;28;20546;-71
2023/03/23 11:59:18;;;;;;;1999.90;999.90;;;16.10;99.90;;;;;;5070038;28;20423;-71
2023/03/23 12:01:50;;;;;;;1999.90;999.90;;;16.30;99.90;;;;;;5066523;28;20972;-71
2023/03/23 12:04:33;;;;;;;1999.90;999.90;;;16.40;99.90;;;;;;5069440;28;20427;-69
2023/03/23 12:07:13;;;;;;;1999.90;999.90;;;16.70;99.90;;;;;;5067420;28;20423;-71
2023/03/23 12:09:48;;;;;;;1999.90;999.90;;;16.90;99.90;;;;;;5069026;28;20435;-67
2023/03/23 12:12:23;;;;;;;1999.90;999.90;;;16.90;99.90;;;;;;5069495;28;20415;-71
2023/03/23 12:15:00;;;;;;;1999.90;999.90;;;16.70;99.90;;;;;;5066953;28;20408;-70